Time;durP1;ratioP1;P1;durP2;ratioP2;P2;SDS_P1;SDS_P2;PMS_P1;PMS_P2;Temp;Humidity;BMP_temperature;BMP_pressure;BME280_temperature;BME280_humidity;BME280_pressure;Samples;Min_cycle;Max_cycle;Signal;HPM_P1;HPM_P2
2021/03/26 00:00:50;;;;;;;47.55;33.15;;;4.10;99.90;;;;;;5074227;28;20193;-69
2021/03/26 00:03:20;;;;;;;50.05;34.53;;;3.90;99.90;;;;;;5073372;28;20239;-66
2021/03/26 00:05:47;;;;;;;60.28;44.15;;;4.00;99.90;;;;;;5073404;28;20627;-69
2021/03/26 00:08:15;;;;;;;59.00;44.75;;;4.00;99.90;;;;;;5072946;28;20228;-66
2021/03/26 00:10:42;;;;;;;62.03;42.60;;;3.80;99.90;;;;;;5074595;28;20169;-66
2021/03/26 00:13:08;;;;;;;59.38;39.63;;;3.80;99.90;;;;;;5074387;28;20203;-67
2021/03/26 00:15:35;;;;;;;62.33;38.75;;;3.80;99.90;;;;;;5074538;28;20582;-66
2021/03/26 00:18:00;;;;;;;61.33;42.70;;;3.70;99.90;;;;;;5073048;28;20201;-67
2021/03/26 00:20:26;;;;;;;62.47;40.90;;;3.60;99.90;;;;;;5074474;28;20211;-69
2021/03/26 00:22:51;;;;;;;68.60;42.50;;;3.40;99.90;;;;;;5074204;28;20408;-68
2021/03/26 00:25:17;;;;;;;74.43;42.83;;;3.30;99.90;;;;;;5074337;28;20165;-68
2021/03/26 00:27:43;;;;;;;68.43;40.83;;;3.10;99.90;;;;;;5072841;28;20217;-67
2021/03/26 00:30:12;;;;;;;77.20;41.20;;;3.00;99.90;;;;;;5074097;28;20634;-67
2021/03/26 00:32:39;;;;;;;92.93;46.60;;;2.80;99.90;;;;;;5074098;28;20650;-66
2021/03/26 00:35:09;;;;;;;78.25;41.60;;;3.00;99.90;;;;;;5074187;28;20244;-67
2021/03/26 00:37:35;;;;;;;55.63;33.13;;;2.90;99.90;;;;;;5073765;28;20323;-68
2021/03/26 00:40:00;;;;;;;48.10;32.87;;;3.00;99.90;;;;;;5074101;28;20663;-68
2021/03/26 00:42:26;;;;;;;64.40;37.53;;;2.90;99.90;;;;;;5074621;28;20443;-68
2021/03/26 00:44:52;;;;;;;63.93;39.10;;;2.40;99.90;;;;;;5073541;28;20319;-69
2021/03/26 00:47:18;;;;;;;70.40;41.28;;;2.40;99.90;;;;;;5072660;28;20177;-66
2021/03/26 00:49:43;;;;;;;70.47;39.87;;;2.50;99.90;;;;;;5072852;28;20189;-68
2021/03/26 00:52:09;;;;;;;60.43;36.20;;;2.40;99.90;;;;;;5074336;28;20173;-69
2021/03/26 00:54:35;;;;;;;56.70;36.83;;;2.40;99.90;;;;;;5072534;28;20288;-68
2021/03/26 00:57:02;;;;;;;78.05;51.75;;;2.40;99.90;;;;;;5072844;28;20176;-66
2021/03/26 00:59:27;;;;;;;64.70;38.85;;;2.50;99.90;;;;;;5072495;28;20289;-67
2021/03/26 01:01:53;;;;;;;55.03;34.63;;;2.50;99.90;;;;;;5074129;28;20196;-66
2021/03/26 01:04:18;;;;;;;49.73;33.87;;;2.30;99.90;;;;;;5073696;28;20197;-68
2021/03/26 01:06:44;;;;;;;57.80;36.03;;;2.20;99.90;;;;;;5074074;28;20524;-66
2021/03/26 01:09:10;;;;;;;55.87;37.50;;;2.10;99.90;;;;;;5073618;28;20625;-69
2021/03/26 01:11:37;;;;;;;52.73;37.80;;;2.20;99.90;;;;;;5073123;28;20619;-66
2021/03/26 01:14:10;;;;;;;56.63;35.97;;;2.30;99.90;;;;;;5073521;28;20261;-67
2021/03/26 01:16:36;;;;;;;57.38;38.53;;;2.40;99.90;;;;;;5074099;28;20619;-67
2021/03/26 01:19:02;;;;;;;56.83;33.77;;;2.50;99.90;;;;;;5073614;28;20199;-66
2021/03/26 01:21:30;;;;;;;57.00;35.93;;;2.50;99.90;;;;;;5073877;28;20646;-68
2021/03/26 01:23:56;;;;;;;57.25;36.05;;;2.40;99.90;;;;;;5073665;28;20791;-68
2021/03/26 01:26:23;;;;;;;54.80;37.67;;;2.40;99.90;;;;;;5072384;28;20231;-68
2021/03/26 01:28:49;;;;;;;52.65;35.58;;;2.50;99.90;;;;;;5073334;28;20309;-68
2021/03/26 01:31:15;;;;;;;60.23;37.60;;;2.50;99.90;;;;;;5073705;28;20185;-68
2021/03/26 01:33:41;;;;;;;56.03;36.90;;;2.40;99.90;;;;;;5072109;28;20197;-68
2021/03/26 01:36:08;;;;;;;57.40;35.70;;;2.30;99.90;;;;;;5073773;28;20192;-66
2021/03/26 01:38:34;;;;;;;52.53;35.25;;;2.30;99.90;;;;;;5072048;28;20434;-68
2021/03/26 01:41:07;;;;;;;55.60;34.28;;;2.00;99.90;;;;;;5072131;28;20259;-66
2021/03/26 01:43:36;;;;;;;52.40;34.42;;;2.10;99.90;;;;;;5073342;28;20658;-69
2021/03/26 01:46:04;;;;;;;54.35;37.08;;;2.30;99.90;;;;;;5073469;28;20577;-68
2021/03/26 01:48:40;;;;;;;57.20;36.22;;;2.20;99.90;;;;;;5073182;28;20227;-68
2021/03/26 01:51:09;;;;;;;52.63;36.10;;;2.20;99.90;;;;;;5073468;28;20180;-67
2021/03/26 01:53:35;;;;;;;50.65;34.45;;;2.40;99.90;;;;;;5073214;28;20258;-66
2021/03/26 01:56:03;;;;;;;50.90;34.50;;;2.20;99.90;;;;;;5073478;28;20190;-66
2021/03/26 01:58:31;;;;;;;60.00;37.72;;;2.30;99.90;;;;;;5073166;28;20651;-66
2021/03/26 02:01:01;;;;;;;56.17;35.50;;;2.20;99.90;;;;;;5073513;28;20177;-68
2021/03/26 02:03:26;;;;;;;62.05;37.00;;;2.30;99.90;;;;;;5071875;28;20223;-66
2021/03/26 02:05:54;;;;;;;52.63;36.60;;;2.30;99.90;;;;;;5071902;28;20260;-66
2021/03/26 02:08:24;;;;;;;54.25;36.60;;;2.20;99.90;;;;;;5071685;28;20221;-69
2021/03/26 02:10:50;;;;;;;52.28;35.58;;;2.20;99.90;;;;;;5071884;28;20186;-66
2021/03/26 02:13:33;;;;;;;55.47;34.60;;;2.20;99.90;;;;;;5071739;28;20247;-66
2021/03/26 02:16:00;;;;;;;51.20;34.50;;;2.20;99.90;;;;;;5073319;28;20467;-66
2021/03/26 02:18:31;;;;;;;54.28;34.20;;;2.30;99.90;;;;;;5072984;28;20197;-68
2021/03/26 02:21:01;;;;;;;56.30;36.20;;;2.30;99.90;;;;;;5071788;28;20209;-66
2021/03/26 02:23:28;;;;;;;57.00;37.83;;;2.40;99.90;;;;;;5075040;28;20201;-68
2021/03/26 02:25:57;;;;;;;55.97;37.28;;;2.30;99.90;;;;;;5076718;28;20177;-66
2021/03/26 02:28:23;;;;;;;52.00;35.72;;;2.30;99.90;;;;;;5076364;28;20225;-67
2021/03/26 02:30:55;;;;;;;57.90;36.95;;;2.40;99.90;;;;;;5075297;28;20637;-69
2021/03/26 02:33:22;;;;;;;62.28;38.45;;;2.20;99.90;;;;;;5076485;28;20760;-68
2021/03/26 02:36:13;;;;;;;63.00;39.47;;;2.20;99.90;;;;;;5075091;28;20326;-66
2021/03/26 02:38:41;;;;;;;61.22;36.58;;;2.20;99.90;;;;;;5076351;28;20275;-67
2021/03/26 02:41:26;;;;;;;59.53;38.58;;;2.30;99.90;;;;;;5075118;28;20207;-67
2021/03/26 02:44:02;;;;;;;56.22;39.13;;;2.10;99.90;;;;;;5076259;28;20240;-69
2021/03/26 02:46:37;;;;;;;57.53;40.95;;;1.90;99.90;;;;;;5075180;28;20571;-68
2021/03/26 02:49:18;;;;;;;58.63;38.65;;;2.00;99.90;;;;;;5076231;28;20213;-66
2021/03/26 02:51:55;;;;;;;63.58;41.30;;;1.80;99.90;;;;;;5076178;28;20180;-66
2021/03/26 02:54:28;;;;;;;63.05;38.67;;;1.90;99.90;;;;;;5076172;28;20262;-68
2021/03/26 02:57:01;;;;;;;63.80;38.92;;;1.90;99.90;;;;;;5076510;28;20183;-66
2021/03/26 02:59:38;;;;;;;60.88;37.78;;;1.90;99.90;;;;;;5076068;28;20243;-66
2021/03/26 03:02:05;;;;;;;55.42;37.70;;;1.80;99.90;;;;;;5076502;28;20226;-66
2021/03/26 03:04:32;;;;;;;62.10;37.28;;;1.70;99.90;;;;;;5075948;28;20607;-69
2021/03/26 03:07:24;;;;;;;61.10;37.50;;;1.70;99.90;;;;;;5076363;28;20623;-66
2021/03/26 03:09:55;;;;;;;86.45;51.03;;;1.70;99.90;;;;;;5075766;28;20209;-69
2021/03/26 03:12:33;;;;;;;117.85;58.47;;;1.60;99.90;;;;;;5076386;28;20173;-68
2021/03/26 03:15:14;;;;;;;98.28;52.85;;;1.60;99.90;;;;;;5075974;28;20576;-67
2021/03/26 03:17:57;;;;;;;84.90;50.50;;;1.50;99.90;;;;;;5074399;28;20658;-68
2021/03/26 03:20:30;;;;;;;99.55;56.45;;;1.50;99.90;;;;;;5074436;28;20256;-68
2021/03/26 03:23:20;;;;;;;87.10;50.35;;;1.70;99.90;;;;;;5075669;28;20601;-69
2021/03/26 03:25:46;;;;;;;93.32;52.75;;;1.30;99.90;;;;;;5075569;28;20173;-69
2021/03/26 03:28:40;;;;;;;103.77;59.97;;;1.60;99.90;;;;;;5074126;28;20584;-69
2021/03/26 03:31:11;;;;;;;109.85;63.63;;;1.60;99.90;;;;;;5075671;28;20189;-66
2021/03/26 03:34:03;;;;;;;90.78;54.80;;;1.70;99.90;;;;;;5073776;28;20631;-66
2021/03/26 03:37:10;;;;;;;97.78;55.05;;;1.60;99.90;;;;;;5069799;28;20197;-66
2021/03/26 03:39:59;;;;;;;89.85;51.08;;;1.60;99.90;;;;;;5073500;28;20232;-66
2021/03/26 03:42:51;;;;;;;81.78;48.03;;;1.50;99.90;;;;;;5075851;28;20536;-69
2021/03/26 03:45:38;;;;;;;89.55;50.30;;;1.60;99.90;;;;;;5074647;28;20626;-68
2021/03/26 03:48:11;;;;;;;89.70;50.33;;;1.50;99.90;;;;;;5075013;28;20227;-68
2021/03/26 03:51:02;;;;;;;77.00;49.13;;;1.60;99.90;;;;;;5075119;28;20203;-68
2021/03/26 03:53:55;;;;;;;82.10;50.78;;;1.60;99.90;;;;;;5074699;28;20216;-66
2021/03/26 03:56:20;;;;;;;86.90;49.17;;;1.60;99.90;;;;;;5075209;28;20248;-68
2021/03/26 03:58:59;;;;;;;87.73;53.00;;;1.60;99.90;;;;;;5074681;28;20315;-66
2021/03/26 04:01:43;;;;;;;86.13;49.38;;;1.80;99.90;;;;;;5075096;28;20173;-68
2021/03/26 04:04:28;;;;;;;78.28;48.53;;;1.90;99.90;;;;;;5074650;28;20193;-67
2021/03/26 04:07:02;;;;;;;76.97;46.13;;;1.70;99.90;;;;;;5073570;28;20690;-69
2021/03/26 04:09:40;;;;;;;83.93;49.72;;;1.80;99.90;;;;;;5074545;28;20220;-67
2021/03/26 04:12:16;;;;;;;79.85;45.22;;;2.00;99.90;;;;;;5075121;28;20661;-66
2021/03/26 04:14:55;;;;;;;80.65;47.67;;;1.70;99.90;;;;;;5073534;28;20243;-68
2021/03/26 04:17:27;;;;;;;74.50;47.03;;;1.80;99.90;;;;;;5075008;28;20173;-68
2021/03/26 04:20:01;;;;;;;87.80;52.65;;;1.80;99.90;;;;;;5074424;28;20174;-66
2021/03/26 04:22:36;;;;;;;86.85;50.58;;;1.80;99.90;;;;;;5074880;28;20189;-67
2021/03/26 04:25:25;;;;;;;77.20;47.75;;;1.90;99.90;;;;;;5074391;28;20195;-66
2021/03/26 04:28:07;;;;;;;79.15;48.03;;;1.90;99.90;;;;;;5074066;28;20220;-66
2021/03/26 04:30:40;;;;;;;77.15;51.13;;;1.90;99.90;;;;;;5074355;28;20188;-66
2021/03/26 04:33:06;;;;;;;73.95;46.30;;;1.90;99.90;;;;;;5074361;28;20189;-67
2021/03/26 04:35:32;;;;;;;80.65;50.42;;;1.80;99.90;;;;;;5074220;28;20169;-68
2021/03/26 04:38:04;;;;;;;82.03;47.85;;;1.60;99.90;;;;;;5074138;28;20258;-68
2021/03/26 04:40:33;;;;;;;84.95;49.90;;;1.70;99.90;;;;;;5074117;28;20165;-66
2021/03/26 04:43:10;;;;;;;85.85;50.15;;;1.80;99.90;;;;;;5074027;28;20674;-68
2021/03/26 04:45:58;;;;;;;76.10;47.38;;;1.80;99.90;;;;;;5073713;28;20227;-69
2021/03/26 04:48:33;;;;;;;74.95;47.22;;;1.80;99.90;;;;;;5073934;28;20590;-66
2021/03/26 04:51:18;;;;;;;83.35;50.08;;;1.90;99.90;;;;;;5073962;28;20188;-69
2021/03/26 04:54:29;;;;;;;87.55;51.53;;;1.90;99.90;;;;;;5073746;28;20197;-68
2021/03/26 04:57:11;;;;;;;81.93;49.78;;;1.90;99.90;;;;;;5067115;28;20199;-68
2021/03/26 04:59:45;;;;;;;85.15;51.95;;;1.90;99.90;;;;;;5072563;28;20212;-66
2021/03/26 05:02:14;;;;;;;78.10;48.00;;;1.70;99.90;;;;;;5074482;28;20172;-66
2021/03/26 05:04:43;;;;;;;83.45;51.03;;;1.90;99.90;;;;;;5073736;28;20276;-68
2021/03/26 05:07:23;;;;;;;86.90;52.78;;;2.00;99.90;;;;;;5073679;28;20669;-69
2021/03/26 05:09:52;;;;;;;77.97;50.72;;;1.80;99.90;;;;;;5073669;28;20295;-66
2021/03/26 05:12:23;;;;;;;96.88;53.58;;;2.00;99.90;;;;;;5074234;28;20645;-68
2021/03/26 05:15:05;;;;;;;87.53;57.72;;;1.90;99.90;;;;;;5073602;28;20196;-68
2021/03/26 05:17:39;;;;;;;90.05;58.13;;;2.00;99.90;;;;;;5073562;28;20166;-69
2021/03/26 05:20:16;;;;;;;111.82;69.85;;;2.00;99.90;;;;;;5073613;28;20173;-66
2021/03/26 05:22:48;;;;;;;119.55;73.93;;;2.20;99.90;;;;;;5073579;28;20538;-69
2021/03/26 05:25:18;;;;;;;113.72;72.15;;;2.10;99.90;;;;;;5073528;28;20175;-66
2021/03/26 05:27:46;;;;;;;119.97;70.45;;;2.20;99.90;;;;;;5073385;28;20212;-68
2021/03/26 05:30:18;;;;;;;120.07;67.93;;;2.50;99.90;;;;;;5082321;28;20180;-67
2021/03/26 05:32:46;;;;;;;114.45;65.40;;;3.00;99.90;;;;;;5092668;28;20192;-68
2021/03/26 05:35:24;;;;;;;110.82;64.75;;;3.10;99.90;;;;;;5093012;28;20563;-68
2021/03/26 05:38:01;;;;;;;110.00;66.25;;;3.50;99.90;;;;;;5093353;28;20208;-66
2021/03/26 05:40:51;;;;;;;107.70;65.20;;;3.50;99.90;;;;;;5091532;28;20192;-67
2021/03/26 05:43:54;;;;;;;105.18;61.38;;;3.60;99.90;;;;;;5084320;28;20670;-66
2021/03/26 05:46:57;;;;;;;98.00;57.47;;;3.70;99.90;;;;;;5092285;28;20251;-69
2021/03/26 05:49:35;;;;;;;88.03;55.75;;;3.90;99.90;;;;;;5092882;28;20273;-68
2021/03/26 05:52:19;;;;;;;96.32;55.90;;;4.20;99.90;;;;;;5073815;28;20235;-69
2021/03/26 05:55:12;;;;;;;87.68;53.42;;;4.20;99.90;;;;;;5091220;28;20204;-68
2021/03/26 05:57:42;;;;;;;91.38;54.15;;;4.30;99.90;;;;;;5090823;28;20219;-68
2021/03/26 06:00:30;;;;;;;86.15;53.85;;;3.60;99.90;;;;;;5095060;28;20290;-70
2021/03/26 06:03:25;;;;;;;89.10;57.05;;;3.60;99.90;;;;;;5091509;28;20666;-66
2021/03/26 06:06:09;;;;;;;84.07;51.38;;;3.80;99.90;;;;;;5095544;28;20186;-67
2021/03/26 06:08:50;;;;;;;82.95;49.38;;;4.00;99.90;;;;;;5095377;28;20735;-67
2021/03/26 06:11:53;;;;;;;78.18;47.83;;;4.10;99.90;;;;;;5097359;28;20199;-68
2021/03/26 06:14:58;;;;;;;94.03;52.45;;;4.20;99.90;;;;;;5096628;28;20211;-68
2021/03/26 06:17:54;;;;;;;73.80;47.42;;;4.40;99.90;;;;;;5092958;28;20215;-67
2021/03/26 06:20:37;;;;;;;78.53;47.47;;;4.50;99.90;;;;;;5096795;28;20546;-69
2021/03/26 06:23:21;;;;;;;74.43;47.25;;;4.70;99.90;;;;;;5095637;28;20241;-66
2021/03/26 06:26:04;;;;;;;77.00;46.90;;;4.90;99.90;;;;;;5096883;28;20182;-70
2021/03/26 06:28:44;;;;;;;72.03;46.35;;;4.90;99.90;;;;;;5095635;28;20220;-69
2021/03/26 06:31:48;;;;;;;67.57;44.85;;;5.00;99.90;;;;;;5092210;28;20176;-67
2021/03/26 06:34:30;;;;;;;78.97;45.50;;;5.20;99.90;;;;;;5052419;28;20216;-69
2021/03/26 06:37:25;;;;;;;68.78;43.28;;;5.30;99.90;;;;;;5095672;28;20173;-68
2021/03/26 06:40:16;;;;;;;67.75;44.90;;;5.40;99.90;;;;;;5096533;28;20216;-70
2021/03/26 06:42:51;;;;;;;73.70;46.85;;;5.50;99.90;;;;;;5094942;28;20177;-68
2021/03/26 06:45:36;;;;;;;69.35;44.80;;;5.70;99.90;;;;;;5097572;28;20226;-70
2021/03/26 06:48:12;;;;;;;67.22;42.55;;;6.00;99.90;;;;;;5094996;28;20241;-67
2021/03/26 06:50:46;;;;;;;63.10;42.90;;;6.20;99.90;;;;;;5094784;28;20172;-67
2021/03/26 06:53:41;;;;;;;65.05;41.90;;;6.40;99.90;;;;;;5094662;28;20199;-67
2021/03/26 06:56:42;;;;;;;60.90;42.38;;;6.60;99.90;;;;;;5094043;28;20259;-68
2021/03/26 06:59:50;;;;;;;65.68;39.88;;;6.80;99.90;;;;;;5091227;28;20221;-67
2021/03/26 07:02:45;;;;;;;53.92;39.10;;;6.90;99.90;;;;;;5074307;28;20207;-69
2021/03/26 07:05:13;;;;;;;59.83;38.38;;;7.00;99.90;;;;;;5093064;28;20179;-69
2021/03/26 07:08:10;;;;;;;58.28;37.90;;;7.20;99.90;;;;;;5093612;28;20653;-69
2021/03/26 07:10:41;;;;;;;61.42;40.38;;;7.40;99.90;;;;;;5094747;28;20196;-70
2021/03/26 07:13:30;;;;;;;48.05;32.75;;;7.60;99.90;;;;;;5095844;28;20200;-69
2021/03/26 07:16:39;;;;;;;48.05;32.38;;;7.60;99.90;;;;;;5094667;28;20187;-68
2021/03/26 07:19:58;;;;;;;46.28;32.58;;;7.80;99.90;;;;;;5095170;28;20295;-68
2021/03/26 07:22:49;;;;;;;48.72;32.35;;;7.80;99.90;;;;;;5036445;28;20186;-67
2021/03/26 07:25:24;;;;;;;54.67;37.30;;;7.90;99.90;;;;;;5090097;28;20180;-69
2021/03/26 07:28:02;;;;;;;46.00;31.63;;;8.10;99.90;;;;;;5090174;28;20242;-67
2021/03/26 07:30:52;;;;;;;50.30;34.92;;;8.40;99.90;;;;;;5095020;28;20176;-67
2021/03/26 07:33:31;;;;;;;50.25;35.50;;;8.70;99.90;;;;;;5077550;28;20200;-66
2021/03/26 07:36:06;;;;;;;50.22;35.03;;;8.90;99.90;;;;;;5087850;28;20176;-67
2021/03/26 07:38:54;;;;;;;54.15;37.10;;;8.90;99.90;;;;;;5083160;28;20215;-69
2021/03/26 07:41:46;;;;;;;50.30;34.80;;;9.20;99.90;;;;;;5094772;28;20185;-67
2021/03/26 07:44:33;;;;;;;58.38;39.00;;;9.20;99.90;;;;;;5088509;28;20572;-67
2021/03/26 07:47:19;;;;;;;55.80;36.15;;;9.40;99.90;;;;;;5076840;28;20212;-67
2021/03/26 07:50:14;;;;;;;54.55;40.25;;;9.70;99.90;;;;;;5092823;28;20224;-67
2021/03/26 07:52:58;;;;;;;54.55;36.78;;;10.00;99.90;;;;;;5074333;28;20196;-68
2021/03/26 07:55:49;;;;;;;57.88;38.85;;;10.20;99.90;;;;;;5088702;28;20305;-67
2021/03/26 07:58:33;;;;;;;52.75;36.72;;;10.40;99.90;;;;;;5092535;28;20250;-67
2021/03/26 08:01:29;;;;;;;56.47;38.70;;;10.70;99.90;;;;;;5090973;28;20253;-69
2021/03/26 08:04:23;;;;;;;54.70;39.65;;;10.40;99.90;;;;;;5091454;28;20223;-69
2021/03/26 08:07:04;;;;;;;51.17;38.30;;;10.60;99.90;;;;;;5088980;28;20542;-67
2021/03/26 08:09:42;;;;;;;54.17;39.20;;;10.80;99.90;;;;;;5089747;28;20216;-69
2021/03/26 08:12:26;;;;;;;50.28;38.10;;;11.00;99.90;;;;;;5089591;28;20540;-68
2021/03/26 08:15:06;;;;;;;48.42;36.17;;;11.30;99.90;;;;;;5090980;28;20180;-67
2021/03/26 08:17:31;;;;;;;55.35;37.83;;;11.10;99.90;;;;;;5090780;28;20181;-67
2021/03/26 08:20:18;;;;;;;52.73;39.53;;;11.40;99.90;;;;;;5090075;28;20169;-70
2021/03/26 08:22:51;;;;;;;49.67;36.28;;;11.80;99.90;;;;;;5091917;28;20219;-67
2021/03/26 08:25:28;;;;;;;48.08;36.33;;;11.90;99.90;;;;;;5091093;28;20660;-70
2021/03/26 08:28:02;;;;;;;45.78;33.15;;;12.30;99.90;;;;;;5070984;28;20233;-69
2021/03/26 08:30:46;;;;;;;45.30;34.72;;;12.50;99.90;;;;;;5072618;28;20246;-68
2021/03/26 08:33:41;;;;;;;42.23;31.53;;;13.00;99.90;;;;;;5071240;28;20570;-71
2021/03/26 08:36:16;;;;;;;38.57;32.50;;;13.40;99.90;;;;;;5069360;28;20414;-68
2021/03/26 08:39:03;;;;;;;37.80;30.93;;;14.00;98.50;;;;;;5069869;28;20796;-70
2021/03/26 08:41:39;;;;;;;41.87;32.63;;;13.90;97.30;;;;;;5070852;28;20414;-68
2021/03/26 08:44:05;;;;;;;40.73;31.40;;;14.60;94.70;;;;;;5071009;28;20425;-68
2021/03/26 08:46:36;;;;;;;36.23;30.43;;;15.20;93.70;;;;;;5071726;28;20501;-67
2021/03/26 08:49:14;;;;;;;37.80;30.77;;;15.30;91.90;;;;;;5082435;28;20461;-68
2021/03/26 08:51:45;;;;;;;38.20;29.33;;;15.50;90.70;;;;;;5091715;28;20443;-66
2021/03/26 08:54:31;;;;;;;34.23;29.40;;;15.90;88.90;;;;;;5092642;28;20448;-70
2021/03/26 08:57:28;;;;;;;34.50;27.50;;;16.60;85.40;;;;;;5091400;28;20421;-69
2021/03/26 09:00:18;;;;;;;32.20;25.80;;;16.20;83.30;;;;;;5089720;28;20483;-68
2021/03/26 09:03:09;;;;;;;32.33;28.73;;;16.40;81.70;;;;;;5091496;28;20880;-67
2021/03/26 09:05:46;;;;;;;29.13;26.13;;;17.20;81.30;;;;;;5089532;28;20995;-67
2021/03/26 09:08:30;;;;;;;31.20;27.03;;;17.60;78.00;;;;;;5090037;28;20482;-69
2021/03/26 09:11:11;;;;;;;40.20;30.23;;;16.40;80.30;;;;;;5090424;28;20941;-68
2021/03/26 09:14:03;;;;;;;33.63;27.80;;;16.60;78.60;;;;;;5091631;28;20460;-67
2021/03/26 09:16:40;;;;;;;26.47;23.10;;;17.10;79.30;;;;;;5089692;28;20435;-69
2021/03/26 09:19:19;;;;;;;28.00;22.40;;;16.50;72.60;;;;;;5090461;28;20910;-67
2021/03/26 09:21:51;;;;;;;27.30;21.13;;;16.60;73.40;;;;;;5085392;28;20432;-67
2021/03/26 09:24:40;;;;;;;26.63;22.23;;;17.00;70.40;;;;;;5085370;28;20528;-67
2021/03/26 09:27:26;;;;;;;29.63;23.37;;;17.10;70.80;;;;;;5086366;28;20432;-67
2021/03/26 09:30:07;;;;;;;33.10;26.03;;;17.20;71.20;;;;;;5086178;28;20522;-67
2021/03/26 09:32:36;;;;;;;31.20;24.20;;;17.20;72.10;;;;;;5089389;28;20429;-68
2021/03/26 09:35:13;;;;;;;26.30;23.33;;;16.80;71.10;;;;;;5091855;28;20457;-70
2021/03/26 09:37:54;;;;;;;29.97;24.23;;;16.60;70.60;;;;;;5092147;28;20430;-66
2021/03/26 09:41:06;;;;;;;26.63;23.60;;;15.80;71.80;;;;;;5087923;28;20960;-67
2021/03/26 09:43:44;;;;;;;26.00;22.00;;;16.10;72.20;;;;;;5089031;28;20459;-69
2021/03/26 09:46:12;;;;;;;27.40;23.30;;;16.10;72.00;;;;;;5092057;28;20466;-68
2021/03/26 09:48:57;;;;;;;25.57;22.80;;;16.60;72.20;;;;;;5092107;28;20475;-70
2021/03/26 09:51:36;;;;;;;27.17;23.40;;;17.00;72.40;;;;;;5091668;28;20852;-67
2021/03/26 09:54:13;;;;;;;26.40;23.43;;;16.90;69.90;;;;;;5092447;28;20429;-67
2021/03/26 09:57:18;;;;;;;30.80;23.33;;;16.80;71.80;;;;;;5091715;28;20477;-67
2021/03/26 10:00:15;;;;;;;30.60;22.63;;;17.00;73.70;;;;;;5085712;28;20456;-68
2021/03/26 10:03:11;;;;;;;30.17;23.80;;;17.30;70.80;;;;;;5092695;28;20421;-67
2021/03/26 10:05:50;;;;;;;29.87;25.57;;;17.10;72.40;;;;;;5091264;28;20447;-68
2021/03/26 10:11:33;;;;;;;27.30;24.30;;;16.60;69.10;;;;;;5092467;28;20444;-67
2021/03/26 10:14:35;;;;;;;31.00;24.70;;;16.10;71.20;;;;;;5092753;28;21025;-67
2021/03/26 10:17:06;;;;;;;27.60;23.23;;;16.60;71.30;;;;;;5094372;28;20440;-69
2021/03/26 10:19:42;;;;;;;29.43;24.50;;;16.60;70.10;;;;;;5083207;28;20465;-69
2021/03/26 10:22:37;;;;;;;32.00;23.30;;;16.90;70.30;;;;;;5096672;28;20491;-68
2021/03/26 10:25:06;;;;;;;30.53;25.07;;;17.30;71.90;;;;;;5089892;28;20436;-69
2021/03/26 10:27:49;;;;;;;31.60;27.73;;;16.90;69.00;;;;;;5090986;28;20428;-67
2021/03/26 10:30:22;;;;;;;31.53;25.40;;;16.80;70.60;;;;;;5084935;28;20497;-68
2021/03/26 10:32:49;;;;;;;29.20;23.50;;;16.90;68.70;;;;;;5089471;28;20452;-67
2021/03/26 10:35:25;;;;;;;33.27;25.23;;;16.90;69.10;;;;;;5089185;28;20428;-67
2021/03/26 10:37:58;;;;;;;32.13;26.87;;;16.90;69.20;;;;;;5087129;28;20474;-69
2021/03/26 10:40:35;;;;;;;35.00;23.53;;;16.40;70.60;;;;;;5091076;28;20431;-67
2021/03/26 10:43:22;;;;;;;32.40;25.23;;;16.80;69.50;;;;;;5094266;28;20442;-67
2021/03/26 10:46:04;;;;;;;30.70;26.10;;;17.00;71.60;;;;;;5091415;28;20466;-67
2021/03/26 10:48:41;;;;;;;32.67;25.27;;;16.80;69.30;;;;;;5090131;28;20827;-69
2021/03/26 10:51:21;;;;;;;30.60;24.93;;;16.90;70.30;;;;;;5082551;28;20766;-69
2021/03/26 10:54:09;;;;;;;32.87;25.13;;;17.00;68.30;;;;;;5089505;28;20438;-69
2021/03/26 10:56:47;;;;;;;29.90;23.77;;;17.00;69.00;;;;;;5086893;28;20451;-69
2021/03/26 10:59:37;;;;;;;28.20;23.53;;;17.10;68.00;;;;;;5094766;28;20510;-67
2021/03/26 11:02:34;;;;;;;30.10;24.80;;;17.10;67.60;;;;;;5084335;28;20435;-70
2021/03/26 11:05:07;;;;;;;27.00;23.53;;;17.50;68.90;;;;;;5091632;28;20484;-70
2021/03/26 11:07:42;;;;;;;27.43;22.20;;;17.40;67.80;;;;;;5097311;28;20459;-67
2021/03/26 11:10:16;;;;;;;30.93;25.53;;;17.60;65.40;;;;;;5091109;28;20814;-67
2021/03/26 11:12:50;;;;;;;29.60;23.23;;;17.50;67.40;;;;;;5076410;28;20439;-69
2021/03/26 11:15:20;;;;;;;30.93;23.70;;;17.50;67.10;;;;;;5086819;28;20434;-70
2021/03/26 11:18:13;;;;;;;29.90;24.03;;;17.70;68.30;;;;;;5088438;28;20425;-69
2021/03/26 11:20:58;;;;;;;30.80;24.40;;;17.70;66.70;;;;;;5082303;28;20522;-68
2021/03/26 11:23:27;;;;;;;28.37;23.60;;;17.60;66.00;;;;;;5079368;28;20975;-68
2021/03/26 11:26:05;;;;;;;29.37;23.07;;;17.00;65.00;;;;;;5093475;28;20443;-68
2021/03/26 11:28:52;;;;;;;29.07;23.63;;;17.40;65.70;;;;;;5093799;28;20496;-70
2021/03/26 11:31:36;;;;;;;27.73;22.90;;;17.20;64.50;;;;;;5099554;28;20429;-68
2021/03/26 11:34:28;;;;;;;29.70;25.97;;;17.40;65.60;;;;;;5087026;28;20449;-70
2021/03/26 11:36:57;;;;;;;28.17;22.30;;;17.90;65.00;;;;;;5075650;28;20527;-68
2021/03/26 11:39:48;;;;;;;32.47;25.43;;;17.70;65.00;;;;;;5091234;28;20473;-71
2021/03/26 11:42:30;;;;;;;27.67;23.10;;;17.70;66.20;;;;;;5081611;28;20784;-67
2021/03/26 11:45:06;;;;;;;28.60;22.90;;;18.10;64.60;;;;;;5108914;28;20524;-70
2021/03/26 11:47:36;;;;;;;30.03;25.50;;;18.00;64.90;;;;;;5086782;28;20435;-68
2021/03/26 11:50:18;;;;;;;28.23;23.37;;;17.90;65.90;;;;;;5086465;28;20467;-67
2021/03/26 11:53:02;;;;;;;35.73;24.73;;;17.70;64.60;;;;;;5090069;28;20964;-68
2021/03/26 11:55:34;;;;;;;31.53;23.43;;;17.80;65.30;;;;;;5091022;28;20448;-68
2021/03/26 11:58:14;;;;;;;27.83;23.07;;;17.80;66.80;;;;;;5091465;28;20808;-67
2021/03/26 12:00:49;;;;;;;27.20;22.47;;;17.70;64.60;;;;;;5091388;28;20411;-67
2021/03/26 12:03:20;;;;;;;26.13;22.53;;;17.50;63.80;;;;;;5090005;28;20489;-68
2021/03/26 12:06:23;;;;;;;27.53;23.57;;;17.50;64.10;;;;;;5089918;28;20427;-68
2021/03/26 12:09:07;;;;;;;26.87;23.70;;;17.70;64.40;;;;;;5087417;28;20532;-67
2021/03/26 12:11:36;;;;;;;25.70;21.60;;;17.80;63.10;;;;;;5092942;28;20970;-69
2021/03/26 12:14:14;;;;;;;23.70;20.63;;;17.60;63.00;;;;;;5090304;28;20490;-69
2021/03/26 12:16:51;;;;;;;25.13;21.30;;;17.40;64.70;;;;;;5084857;28;20519;-69
2021/03/26 12:19:19;;;;;;;25.47;21.00;;;17.50;61.50;;;;;;5098167;28;20518;-67
2021/03/26 12:21:57;;;;;;;26.27;21.47;;;17.80;63.30;;;;;;5098350;28;20780;-70
2021/03/26 12:24:48;;;;;;;24.70;21.13;;;17.80;64.00;;;;;;5091416;28;20452;-69
2021/03/26 12:27:32;;;;;;;25.97;20.33;;;18.00;63.40;;;;;;5099533;28;20465;-68
2021/03/26 12:30:19;;;;;;;26.90;20.90;;;18.30;63.40;;;;;;5096569;28;20509;-70
2021/03/26 12:32:54;;;;;;;24.30;20.07;;;18.50;62.30;;;;;;5099909;28;20943;-69
2021/03/26 12:35:22;;;;;;;27.67;21.00;;;18.50;61.30;;;;;;5099555;28;20457;-67
2021/03/26 12:37:53;;;;;;;23.60;19.63;;;18.60;63.00;;;;;;5102782;28;20523;-67
2021/03/26 12:40:43;;;;;;;23.87;19.50;;;18.20;62.90;;;;;;5099603;28;20412;-69
2021/03/26 12:43:23;;;;;;;28.00;20.50;;;17.60;61.40;;;;;;5100694;28;20444;-70
2021/03/26 12:45:51;;;;;;;23.80;19.50;;;18.00;62.90;;;;;;5094334;28;20591;-69
2021/03/26 12:48:20;;;;;;;26.47;21.70;;;18.20;63.30;;;;;;5103346;28;20550;-68
2021/03/26 12:50:58;;;;;;;26.70;20.93;;;18.20;62.80;;;;;;5100881;28;20514;-68
2021/03/26 12:53:42;;;;;;;26.70;22.00;;;18.50;63.40;;;;;;5093928;28;20448;-67
2021/03/26 12:56:22;;;;;;;34.30;30.57;;;17.60;62.10;;;;;;5090184;28;20447;-70
2021/03/26 12:59:06;;;;;;;24.53;19.90;;;17.50;63.00;;;;;;5111032;28;20492;-69
2021/03/26 13:01:50;;;;;;;27.53;20.57;;;17.70;61.80;;;;;;5110953;28;20416;-70
2021/03/26 13:04:42;;;;;;;27.30;20.07;;;18.10;63.10;;;;;;5110886;28;20768;-67
2021/03/26 13:07:26;;;;;;;24.90;20.10;;;18.40;62.60;;;;;;5094112;28;20485;-67
2021/03/26 13:10:16;;;;;;;26.70;21.03;;;18.70;63.00;;;;;;5091755;28;20475;-68
2021/03/26 13:12:46;;;;;;;28.17;20.30;;;18.80;61.50;;;;;;5086179;28;20494;-68
2021/03/26 13:15:23;;;;;;;29.10;20.77;;;18.90;60.40;;;;;;5081389;28;20421;-70
2021/03/26 13:18:00;;;;;;;22.63;18.50;;;18.90;60.20;;;;;;5088568;28;20884;-68
2021/03/26 13:20:25;;;;;;;28.07;21.67;;;18.90;60.00;;;;;;5080576;28;20432;-67
2021/03/26 13:22:56;;;;;;;25.10;19.27;;;18.70;60.00;;;;;;5081022;28;20458;-70
2021/03/26 13:25:30;;;;;;;23.83;19.43;;;18.70;60.30;;;;;;5091194;28;20176;-67
2021/03/26 13:27:56;;;;;;;21.37;17.40;;;18.80;61.40;;;;;;5092352;28;20519;-70
2021/03/26 13:30:23;;;;;;;23.70;19.57;;;19.10;59.50;;;;;;5090376;28;20523;-70
2021/03/26 13:33:22;;;;;;;24.10;19.40;;;19.30;59.20;;;;;;5073623;28;20208;-70